Time,TemperatureF,DewpointF,PressureIn,WindDirection,WindDirectionDegrees,WindSpeedMPH,WindSpeedGustMPH,Humidity,HourlyPrecipIn,Conditions,Clouds,dailyrainin,SoftwareType,DateUTC
2013-06-27 16:11:00,82.8,65.0,29.63,WNW,282,13.0,13.0,55,0.00,,,0.00,VWS V14.01,2013-06-27 21:11:00,
2013-06-27 16:16:00,82.4,64.1,29.62,WNW,303,8.0,13.0,54,0.00,,,0.00,VWS V14.01,2013-06-27 21:16:00,
2013-06-27 16:18:00,82.2,63.9,29.62,NNW,336,13.0,13.0,54,0.00,,,0.00,VWS V14.01,2013-06-27 21:18:00,
2013-06-27 16:20:00,82.2,63.4,29.62,WNW,290,7.0,13.0,53,0.00,,,0.00,VWS V14.01,2013-06-27 21:20:00,
2013-06-27 16:22:00,82.2,62.8,29.62,NW,319,6.0,16.0,52,0.00,,,0.00,VWS V14.01,2013-06-27 21:22:00,
2013-06-27 16:25:00,82.2,62.8,29.62,NW,319,6.0,16.0,52,0.00,,,0.00,VWS V14.01,2013-06-27 21:25:00,
2013-06-27 16:27:00,82.0,62.1,29.62,WSW,248,7.0,16.0,51,0.00,,,0.00,VWS V14.01,2013-06-27 21:27:00,
2013-06-27 16:28:00,83.0,63.6,29.62,WNW,299,7.0,12.0,52,0.00,,,0.00,VWS V14.01,2013-06-27 21:28:00,
2013-06-27 16:30:00,82.0,61.5,29.62,NNW,337,14.0,17.0,50,0.00,,,0.00,VWS V14.01,2013-06-27 21:30:00,
2013-06-27 16:35:00,82.0,62.7,29.62,WNW,298,6.0,16.0,52,0.00,,,0.00,VWS V14.01,2013-06-27 21:35:00,
2013-06-27 16:37:00,83.0,63.6,29.62,WNW,282,5.0,14.0,52,0.00,,,0.00,VWS V14.01,2013-06-27 21:37:00,
2013-06-27 16:39:00,83.0,63.0,29.62,WNW,298,4.0,14.0,51,0.00,,,0.00,VWS V14.01,2013-06-27 21:39:00,
2013-06-27 16:42:00,83.0,63.6,29.62,NW,320,7.0,14.0,52,0.00,,,0.00,VWS V14.01,2013-06-27 21:42:00,
2013-06-27 16:43:00,82.0,63.2,29.62,West,276,6.0,16.0,53,0.00,,,0.00,VWS V14.01,2013-06-27 21:43:00,
2013-06-27 16:46:00,82.0,63.2,29.62,NW,313,6.0,16.0,53,0.00,,,0.00,VWS V14.01,2013-06-27 21:46:00,
2013-06-27 16:47:00,82.0,62.7,29.62,WNW,290,5.0,16.0,52,0.00,,,0.00,VWS V14.01,2013-06-27 21:47:00,
2013-06-27 17:30:00,82.0,61.5,29.62,NNW,337,14.0,17.0,50,0.00,,,0.00,VWS V14.01,2013-06-27 22:30:00,
2013-06-27 18:38:00,81.8,63.5,29.62,WNW,303,7.0,11.0,54,0.00,,,0.00,VWS V14.01,2013-06-27 23:38:00,
2013-06-27 18:55:00,81.6,64.9,29.61,WNW,282,0.0,0.0,57,0.00,,,0.00,VWS V14.01,2013-06-27 23:55:00,
2013-06-27 19:00:00,81.4,63.2,29.61,West,271,5.0,13.0,54,0.00,,,0.00,VWS V14.01,2013-06-28 00:00:00,
2013-06-27 19:06:00,81.1,64.4,29.61,WNW,290,5.0,7.0,57,0.00,,,0.00,VWS V14.01,2013-06-28 00:06:00,
2013-06-27 19:30:00,81.1,65.4,29.60,WNW,292,3.0,13.0,59,0.00,,,0.00,VWS V14.01,2013-06-28 00:30:00,
2013-06-27 20:00:00,80.2,63.6,29.60,West,270,3.0,11.0,57,0.00,,,0.00,VWS V14.01,2013-06-28 01:00:00,
2013-06-27 20:30:00,79.0,65.3,29.60,West,270,1.0,8.0,63,0.00,,,0.00,VWS V14.01,2013-06-28 01:30:00,
2013-06-27 21:00:00,74.0,74.0,29.65,North,0,6.0,32.0,100,0.05,,,0.05,VWS V14.01,2013-06-28 02:00:00,
2013-06-27 21:30:00,63.9,63.9,29.63,NE,45,2.0,10.0,100,0.06,,,0.06,VWS V14.01,2013-06-28 02:30:00,
2013-06-27 22:00:00,63.5,63.5,29.64,NE,45,0.0,0.0,100,0.06,,,0.06,VWS V14.01,2013-06-28 03:00:00,
2013-06-27 22:30:00,63.5,63.5,29.62,NE,45,0.0,0.0,100,0.01,,,0.06,VWS V14.01,2013-06-28 03:30:00,
2013-06-27 23:00:00,63.6,63.6,29.62,NE,45,0.0,0.0,100,0.00,,,0.06,VWS V14.01,2013-06-28 04:00:00,
2013-06-27 23:30:00,63.5,63.5,29.62,NE,45,0.0,0.0,100,0.00,,,0.06,VWS V14.01,2013-06-28 04:30:00,